#dbistima — V2PX5 — position and weather

sailwx.info

Track history (hours):
 
Tides and Currents Weather Stations Pressure Air Temp Water Temp Dewpoint Dewpoint Depression Visibility Wind Speed Wind Dir Waves Ship Positions

#dbistima

Last reported at 2015-Feb-27 20:23 UTC. Time now 2015-Feb-27 21:15 UTC.
Position N 43°34' W 005°42'.

MMSI: 304010972.

Date/timePositionNaut miles runAvg speedWind from/ knotsBaromVisibWave heightAir tempDewpointWater temp
2015-Feb-27 20:23N 43°34' W 005°42'0 0.0
2015-Feb-27 19:05N 43°34' W 005°42'0 0.0
2015-Feb-27 18:29N 43°34' W 005°42'0 0.0
2015-Feb-27 15:17N 43°34' W 005°42'0 0.0
2015-Feb-27 14:23N 43°34' W 005°42'0 0.2
2015-Feb-27 13:29N 43°34' W 005°42'0 0.0
2015-Feb-27 12:23N 43°34' W 005°42'0 0.0
2015-Feb-27 11:29N 43°34' W 005°42'0 0.0
2015-Feb-27 10:11N 43°34' W 005°42'0 0.0
2015-Feb-27 09:29N 43°34' W 005°42'0 0.0
2015-Feb-27 08:23N 43°34' W 005°42'0 0.0
2015-Feb-27 07:29N 43°34' W 005°42'0 0.0
2015-Feb-27 06:29N 43°34' W 005°42'0 0.0
2015-Feb-27 05:29N 43°34' W 005°42'0 0.0
2015-Feb-27 04:29N 43°34' W 005°42'0 0.0
2015-Feb-27 03:29N 43°34' W 005°42'0 0.0
2015-Feb-27 02:23N 43°34' W 005°42'0 0.0
2015-Feb-27 01:29N 43°34' W 005°42'0 0.0
2015-Feb-27 00:23N 43°34' W 005°42'0 0.0
2015-Feb-26 23:11N 43°34' W 005°42'0 0.0
2015-Feb-26 22:29N 43°34' W 005°42'0 0.0
2015-Feb-26 21:11N 43°34' W 005°42'0 0.0
2015-Feb-26 20:29N 43°34' W 005°42'0 0.0
2015-Feb-26 19:29N 43°34' W 005°42'0 0.0
2015-Feb-26 18:29N 43°34' W 005°42'0 0.0
2015-Feb-26 17:23N 43°34' W 005°42'0 0.0
2015-Feb-26 16:29N 43°34' W 005°42'0 0.0
2015-Feb-26 15:23N 43°34' W 005°42'0 0.0
2015-Feb-26 14:23N 43°34' W 005°42'0 0.0
2015-Feb-26 13:17N 43°34' W 005°42'0 0.0
2015-Feb-26 12:29N 43°34' W 005°42'0 0.0
2015-Feb-26 06:23N 43°34' W 005°42'0 0.0
2015-Feb-26 05:29N 43°34' W 005°42'0 0.0
2015-Feb-26 04:29N 43°34' W 005°42'0 0.0
2015-Feb-26 03:29N 43°34' W 005°42'0 0.0
2015-Feb-26 02:23N 43°34' W 005°42'0 0.0
2015-Feb-26 01:29N 43°34' W 005°42'0 0.0
2015-Feb-26 00:29N 43°34' W 005°42'0 0.0
2015-Feb-25 23:29N 43°34' W 005°42'0 0.0
2015-Feb-25 22:29N 43°34' W 005°42'0 0.0
2015-Feb-25 20:17N 43°34' W 005°42'0 0.0
2015-Feb-25 19:29N 43°34' W 005°42'0 0.0
2015-Feb-25 18:23N 43°34' W 005°42'0 0.0
2015-Feb-25 14:32N 43°34' W 005°42'5 5.1
2015-Feb-25 13:33N 43°36' W 005°36'1 0.6
2015-Feb-25 12:22N 43°37' W 005°35'2 1.9
2015-Feb-25 11:33N 43°35' W 005°34'1 0.3
2015-Feb-25 08:13N 43°36' W 005°34'0 0.6
2015-Feb-25 07:33N 43°36' W 005°34'2 1.5
2015-Feb-25 06:14N 43°37' W 005°31'1 1.7
2015-Feb-25 05:29N 43°37' W 005°33'1 1.3
2015-Feb-25 04:33N 43°38' W 005°32'3 3.3
2015-Feb-25 03:33N 43°38' W 005°28'4 3.2
2015-Feb-25 02:26N 43°37' W 005°23'1 1.2
2015-Feb-25 01:15N 43°37' W 005°25'5 6.6
2015-Feb-25 00:33N 43°38' W 005°31'0 0.5
2015-Feb-24 23:33N 43°37' W 005°31'3 3.1
2015-Feb-24 22:33N 43°36' W 005°27'3 2.8
2015-Feb-24 21:33N 43°36' W 005°23'2 1.6
2015-Feb-24 20:32N 43°36' W 005°21'7 6.7
2015-Feb-24 19:31N 43°37' W 005°30'2 1.9
2015-Feb-24 18:33N 43°38' W 005°33'2 2.3
2015-Feb-24 17:33N 43°37' W 005°30'2 2.3
2015-Feb-24 16:33N 43°37' W 005°27'2 2.2
2015-Feb-24 15:32N 43°36' W 005°23'2 2.2
2015-Feb-24 14:33N 43°36' W 005°20'6 5.6
2015-Feb-24 13:32N 43°37' W 005°28'4 4.4
2015-Feb-24 12:32N 43°38' W 005°34'3 2.7
2015-Feb-24 11:33N 43°37' W 005°30'3 3.3
2015-Feb-24 10:33N 43°36' W 005°26'3 2.9
2015-Feb-24 09:33N 43°36' W 005°22'5 4.9
2015-Feb-24 08:27N 43°38' W 005°29'3 3.8
2015-Feb-24 07:33N 43°38' W 005°34'3 2.7
2015-Feb-24 06:33N 43°38' W 005°30'3 2.7
2015-Feb-24 05:33N 43°38' W 005°26'3 3.1
2015-Feb-24 04:32N 43°38' W 005°22'6 5.1
2015-Feb-24 03:26N 43°38' W 005°30'3 3.7
2015-Feb-24 02:32N 43°38' W 005°34'2 2.1
2015-Feb-24 01:33N 43°38' W 005°31'2 1.9
2015-Feb-24 00:22N 43°38' W 005°28'1 1.8
2015-Feb-23 23:33N 43°37' W 005°26'3 2.6
2015-Feb-23 22:25N 43°37' W 005°22'6 4.2
2015-Feb-23 21:03N 43°38' W 005°30'3 6.6
2015-Feb-23 20:33N 43°38' W 005°34'2 2.4
2015-Feb-23 19:33N 43°38' W 005°31'3 2.8
2015-Feb-23 18:33N 43°38' W 005°27'3 2.7
2015-Feb-23 17:33N 43°38' W 005°24'0 0.3
2015-Feb-23 16:32N 43°38' W 005°24'7 7.5
2015-Feb-23 15:33N 43°38' W 005°34'6 6.0
2015-Feb-23 14:33N 43°36' W 005°42'0 0.0
2015-Feb-23 09:14N 43°36' W 005°42'0 0.0
2015-Feb-23 08:30N 43°36' W 005°42'3 2.6
2015-Feb-23 07:33N 43°39' W 005°42'4 4.2
2015-Feb-23 06:33N 43°41' W 005°47'9 8.5
2015-Feb-23 05:28N 43°42' W 005°59'1010.2
2015-Feb-23 04:28N 43°41' W 006°13'  
Track history (hours):
 
Tides and Currents Weather Stations Pressure Air Temp Water Temp Dewpoint Dewpoint Depression Visibility Wind Speed Wind Dir Waves Ship Positions

#dbistima

Last reported at 2015-Feb-27 20:23 UTC. Time now 2015-Feb-27 21:15 UTC.
Position N 43°34' W 005°42'.

MMSI: 304010972.

Date/timePositionNaut miles runAvg speedWind from/ knotsBaromVisibWave heightAir tempDewpointWater temp
2015-Feb-27 20:23N 43°34' W 005°42'0 0.0
2015-Feb-27 19:05N 43°34' W 005°42'0 0.0
2015-Feb-27 18:29N 43°34' W 005°42'0 0.0
2015-Feb-27 15:17N 43°34' W 005°42'0 0.0
2015-Feb-27 14:23N 43°34' W 005°42'0 0.2
2015-Feb-27 13:29N 43°34' W 005°42'0 0.0
2015-Feb-27 12:23N 43°34' W 005°42'0 0.0
2015-Feb-27 11:29N 43°34' W 005°42'0 0.0
2015-Feb-27 10:11N 43°34' W 005°42'0 0.0
2015-Feb-27 09:29N 43°34' W 005°42'0 0.0
2015-Feb-27 08:23N 43°34' W 005°42'0 0.0
2015-Feb-27 07:29N 43°34' W 005°42'0 0.0
2015-Feb-27 06:29N 43°34' W 005°42'0 0.0
2015-Feb-27 05:29N 43°34' W 005°42'0 0.0
2015-Feb-27 04:29N 43°34' W 005°42'0 0.0
2015-Feb-27 03:29N 43°34' W 005°42'0 0.0
2015-Feb-27 02:23N 43°34' W 005°42'0 0.0
2015-Feb-27 01:29N 43°34' W 005°42'0 0.0
2015-Feb-27 00:23N 43°34' W 005°42'0 0.0
2015-Feb-26 23:11N 43°34' W 005°42'0 0.0
2015-Feb-26 22:29N 43°34' W 005°42'0 0.0
2015-Feb-26 21:11N 43°34' W 005°42'0 0.0
2015-Feb-26 20:29N 43°34' W 005°42'0 0.0
2015-Feb-26 19:29N 43°34' W 005°42'0 0.0
2015-Feb-26 18:29N 43°34' W 005°42'0 0.0
2015-Feb-26 17:23N 43°34' W 005°42'0 0.0
2015-Feb-26 16:29N 43°34' W 005°42'0 0.0
2015-Feb-26 15:23N 43°34' W 005°42'0 0.0
2015-Feb-26 14:23N 43°34' W 005°42'0 0.0
2015-Feb-26 13:17N 43°34' W 005°42'0 0.0
2015-Feb-26 12:29N 43°34' W 005°42'0 0.0
2015-Feb-26 06:23N 43°34' W 005°42'0 0.0
2015-Feb-26 05:29N 43°34' W 005°42'0 0.0
2015-Feb-26 04:29N 43°34' W 005°42'0 0.0
2015-Feb-26 03:29N 43°34' W 005°42'0 0.0
2015-Feb-26 02:23N 43°34' W 005°42'0 0.0
2015-Feb-26 01:29N 43°34' W 005°42'0 0.0
2015-Feb-26 00:29N 43°34' W 005°42'0 0.0
2015-Feb-25 23:29N 43°34' W 005°42'0 0.0
2015-Feb-25 22:29N 43°34' W 005°42'0 0.0
2015-Feb-25 20:17N 43°34' W 005°42'0 0.0
2015-Feb-25 19:29N 43°34' W 005°42'0 0.0
2015-Feb-25 18:23N 43°34' W 005°42'0 0.0
2015-Feb-25 14:32N 43°34' W 005°42'5 5.1
2015-Feb-25 13:33N 43°36' W 005°36'1 0.6
2015-Feb-25 12:22N 43°37' W 005°35'2 1.9
2015-Feb-25 11:33N 43°35' W 005°34'1 0.3
2015-Feb-25 08:13N 43°36' W 005°34'0 0.6
2015-Feb-25 07:33N 43°36' W 005°34'2 1.5
2015-Feb-25 06:14N 43°37' W 005°31'1 1.7
2015-Feb-25 05:29N 43°37' W 005°33'1 1.3
2015-Feb-25 04:33N 43°38' W 005°32'3 3.3
2015-Feb-25 03:33N 43°38' W 005°28'4 3.2
2015-Feb-25 02:26N 43°37' W 005°23'1 1.2
2015-Feb-25 01:15N 43°37' W 005°25'5 6.6
2015-Feb-25 00:33N 43°38' W 005°31'0 0.5
2015-Feb-24 23:33N 43°37' W 005°31'3 3.1
2015-Feb-24 22:33N 43°36' W 005°27'3 2.8
2015-Feb-24 21:33N 43°36' W 005°23'2 1.6
2015-Feb-24 20:32N 43°36' W 005°21'7 6.7
2015-Feb-24 19:31N 43°37' W 005°30'2 1.9
2015-Feb-24 18:33N 43°38' W 005°33'2 2.3
2015-Feb-24 17:33N 43°37' W 005°30'2 2.3
2015-Feb-24 16:33N 43°37' W 005°27'2 2.2
2015-Feb-24 15:32N 43°36' W 005°23'2 2.2
2015-Feb-24 14:33N 43°36' W 005°20'6 5.6
2015-Feb-24 13:32N 43°37' W 005°28'4 4.4
2015-Feb-24 12:32N 43°38' W 005°34'3 2.7
2015-Feb-24 11:33N 43°37' W 005°30'3 3.3
2015-Feb-24 10:33N 43°36' W 005°26'3 2.9
2015-Feb-24 09:33N 43°36' W 005°22'5 4.9
2015-Feb-24 08:27N 43°38' W 005°29'3 3.8
2015-Feb-24 07:33N 43°38' W 005°34'3 2.7
2015-Feb-24 06:33N 43°38' W 005°30'3 2.7
2015-Feb-24 05:33N 43°38' W 005°26'3 3.1
2015-Feb-24 04:32N 43°38' W 005°22'6 5.1
2015-Feb-24 03:26N 43°38' W 005°30'3 3.7
2015-Feb-24 02:32N 43°38' W 005°34'2 2.1
2015-Feb-24 01:33N 43°38' W 005°31'2 1.9
2015-Feb-24 00:22N 43°38' W 005°28'1 1.8
2015-Feb-23 23:33N 43°37' W 005°26'3 2.6
2015-Feb-23 22:25N 43°37' W 005°22'6 4.2
2015-Feb-23 21:03N 43°38' W 005°30'3 6.6
2015-Feb-23 20:33N 43°38' W 005°34'2 2.4
2015-Feb-23 19:33N 43°38' W 005°31'3 2.8
2015-Feb-23 18:33N 43°38' W 005°27'3 2.7
2015-Feb-23 17:33N 43°38' W 005°24'0 0.3
2015-Feb-23 16:32N 43°38' W 005°24'7 7.5
2015-Feb-23 15:33N 43°38' W 005°34'6 6.0
2015-Feb-23 14:33N 43°36' W 005°42'0 0.0
2015-Feb-23 09:14N 43°36' W 005°42'0 0.0
2015-Feb-23 08:30N 43°36' W 005°42'3 2.6
2015-Feb-23 07:33N 43°39' W 005°42'4 4.2
2015-Feb-23 06:33N 43°41' W 005°47'9 8.5
2015-Feb-23 05:28N 43°42' W 005°59'1010.2
2015-Feb-23 04:28N 43°41' W 006°13'  

Dump ship's entire track history